aviador You're here:

KBFD Decoded Metar

BRADFORD in PA, USA
Report Time2018-02-19 11:53:00
UTC Time2018-02-19 11:59:32
Flight Rules vfr VFR
Wind160° at 07 kt
W.Decomp.*RWY 14: 6.0 kt HW 3.6 kt RCW
RWY 23: 3.6 kt HW 6 kt LCW
W.Rank160° ranks 12
Current wind is above 160° avg. (6.6)
Visibility9999 m
Phenomena:N/A
Clouds:Scattered 080 Hf
Expected CloudBase > 1,200 ft AGL from Temp-Dew spread
CeilingNone
Temp01°C (ISA -10)
Dew Point-2°C (81% RH)
AAT-3.8°C
QNH1022 hPa
Density Alt712 ft
Elevation2,123 ft
Report Wrong Elevation
Raw Report
METAR KBFD 191153Z AUTO 16007KT 10SM SCT080 01/M02 A3019 RMK AO2
SLP240 T00111022 10011 21006 53003=

Extra information for KBFD:More info

Metar Taf Metar & Taf Last 4 Metars F.Rules Stats Wind Profile Meteogram Temp Stats Airport Information Weather charts Add Link Nearby VenuesMetar ALERT Operation Metar Decoded Social comments

AIRNAV info for KBFD